Time;durP1;ratioP1;P1;durP2;ratioP2;P2;SDS_P1;SDS_P2;PMS_P1;PMS_P2;Temp;Humidity;BMP_temperature;BMP_pressure;BME280_temperature;BME280_humidity;BME280_pressure;Samples;Min_cycle;Max_cycle;Signal;HPM_P1;HPM_P2
2022/06/04 00:01:14;;;;;;;6.27;5.10;;;;;;;;;;5008920;28;20303;-84
2022/06/04 00:03:42;;;;;;;7.30;5.60;;;;;;;;;;5008413;28;20239;-84
2022/06/04 00:06:13;;;;;;;6.50;5.20;;;;;;;;;;5009142;28;20235;-84
2022/06/04 00:08:44;;;;;;;8.23;5.30;;;;;;;;;;5009867;28;20205;-84
2022/06/04 00:16:44;;;;;;;8.60;5.50;;;;;;;;;;5009540;28;20373;-84
2022/06/04 00:19:12;;;;;;;11.30;5.60;;;;;;;;;;5009177;28;20295;-84
2022/06/04 00:21:39;;;;;;;7.67;5.33;;;;;;;;;;5010272;28;20240;-84
2022/06/04 00:24:13;;;;;;;8.10;5.30;;;;;;;;;;5010548;28;20270;-84
2022/06/04 00:26:40;;;;;;;12.63;5.90;;;;;;;;;;5012019;28;20232;-84
2022/06/04 00:29:09;;;;;;;7.83;6.43;;;;;;;;;;5012089;28;20299;-84
2022/06/04 00:31:40;;;;;;;12.90;7.47;;;;;;;;;;5006519;28;20258;-83
2022/06/04 00:34:09;;;;;;;12.07;7.13;;;;;;;;;;5007920;28;20212;-83
2022/06/04 00:36:36;;;;;;;8.83;7.30;;;;;;;;;;5005540;28;20224;-83
2022/06/04 00:39:09;;;;;;;13.70;7.70;;;;;;;;;;5004850;28;20207;-83
2022/06/04 00:41:40;;;;;;;9.60;7.10;;;;;;;;;;5005816;28;20734;-83
2022/06/04 00:44:22;;;;;;;12.30;6.70;;;;;;;;;;5006241;28;20295;-84
2022/06/04 00:47:16;;;;;;;10.93;7.00;;;;;;;;;;5004926;28;20291;-83
2022/06/04 00:49:46;;;;;;;9.87;6.93;;;;;;;;;;5004835;28;20290;-83
2022/06/04 00:52:15;;;;;;;10.50;6.57;;;;;;;;;;5007571;28;20204;-84
2022/06/04 00:54:43;;;;;;;11.27;6.90;;;;;;;;;;5009539;28;20212;-84
2022/06/04 00:57:18;;;;;;;9.20;6.10;;;;;;;;;;5009874;28;20287;-84
2022/06/04 01:02:32;;;;;;;8.23;6.50;;;;;;;;;;5011220;28;20258;-82
2022/06/04 01:05:05;;;;;;;9.63;7.40;;;;;;;;;;5008700;28;20277;-82
2022/06/04 01:07:38;;;;;;;9.37;7.37;;;;;;;;;;5010218;28;20326;-82
2022/06/04 01:10:14;;;;;;;14.67;7.73;;;;;;;;;;5011170;28;20738;-83
2022/06/04 01:12:47;;;;;;;11.23;7.47;;;;;;;;;;5009071;28;20613;-83
2022/06/04 01:15:21;;;;;;;9.93;7.07;;;;;;;;;;5009847;28;20620;-83
2022/06/04 01:17:54;;;;;;;12.03;7.53;;;;;;;;;;5015034;28;20287;-83
2022/06/04 01:20:47;;;;;;;8.87;7.00;;;;;;;;;;5009832;28;20212;-83
2022/06/04 01:23:27;;;;;;;8.77;7.03;;;;;;;;;;5012966;28;20295;-83
2022/06/04 01:26:22;;;;;;;9.83;6.77;;;;;;;;;;5006944;28;20258;-83
2022/06/04 01:28:56;;;;;;;15.20;6.63;;;;;;;;;;5008877;28;20750;-83
2022/06/04 01:31:37;;;;;;;9.67;7.03;;;;;;;;;;5009334;28;20224;-83
2022/06/04 01:34:14;;;;;;;9.23;7.37;;;;;;;;;;5012277;28;20231;-83
2022/06/04 01:36:53;;;;;;;10.80;7.07;;;;;;;;;;5008372;28;20231;-83
2022/06/04 01:39:22;;;;;;;10.90;7.53;;;;;;;;;;5010362;28;20593;-83
2022/06/04 01:41:56;;;;;;;12.70;7.67;;;;;;;;;;5007014;28;20230;-83
2022/06/04 01:44:29;;;;;;;10.00;7.77;;;;;;;;;;5008364;28;21057;-83
2022/06/04 01:47:00;;;;;;;10.17;7.50;;;;;;;;;;5009007;28;20311;-82
2022/06/04 01:49:31;;;;;;;10.60;6.77;;;;;;;;;;5010312;28;20247;-82
2022/06/04 01:52:01;;;;;;;10.57;6.77;;;;;;;;;;5008216;28;20243;-83
2022/06/04 01:54:31;;;;;;;9.20;7.00;;;;;;;;;;5010341;28;20244;-83
2022/06/04 01:57:02;;;;;;;12.50;7.20;;;;;;;;;;5007390;28;20318;-83
2022/06/04 01:59:33;;;;;;;10.87;7.37;;;;;;;;;;5010304;28;20200;-83
2022/06/04 02:04:50;;;;;;;9.90;7.07;;;;;;;;;;5011521;28;20208;-84
2022/06/04 02:07:34;;;;;;;9.63;7.00;;;;;;;;;;5010547;28;20740;-84
2022/06/04 02:10:06;;;;;;;10.83;6.97;;;;;;;;;;5010118;28;20205;-84
2022/06/04 02:12:38;;;;;;;10.47;7.20;;;;;;;;;;5010101;28;20230;-84
2022/06/04 02:15:07;;;;;;;13.97;7.40;;;;;;;;;;5009705;28;20225;-84
2022/06/04 02:17:36;;;;;;;13.07;6.93;;;;;;;;;;5011318;28;20225;-84
2022/06/04 02:20:05;;;;;;;10.63;7.53;;;;;;;;;;5011205;28;20692;-84
2022/06/04 02:22:32;;;;;;;9.50;7.20;;;;;;;;;;5011467;28;20200;-84
2022/06/04 02:25:03;;;;;;;10.67;7.20;;;;;;;;;;5010640;28;20224;-84
2022/06/04 02:27:31;;;;;;;12.33;7.50;;;;;;;;;;5009125;28;20238;-84
2022/06/04 02:30:02;;;;;;;8.07;6.57;;;;;;;;;;5009614;28;20636;-84
2022/06/04 02:32:34;;;;;;;11.73;6.83;;;;;;;;;;5007971;28;20216;-84
2022/06/04 02:35:13;;;;;;;10.00;7.10;;;;;;;;;;5008408;28;20595;-84
2022/06/04 02:37:47;;;;;;;9.13;6.80;;;;;;;;;;5009463;28;20220;-84
2022/06/04 02:40:17;;;;;;;10.03;6.60;;;;;;;;;;5011565;28;20295;-84
2022/06/04 02:42:46;;;;;;;8.00;6.27;;;;;;;;;;5009778;28;20276;-84
2022/06/04 02:45:18;;;;;;;14.10;7.30;;;;;;;;;;5009235;28;20216;-84
2022/06/04 02:47:47;;;;;;;11.23;7.30;;;;;;;;;;5009813;28;20251;-84
2022/06/04 02:50:17;;;;;;;9.03;7.07;;;;;;;;;;5013254;28;20243;-84
2022/06/04 02:52:46;;;;;;;9.40;6.57;;;;;;;;;;5010092;28;20691;-84
2022/06/04 02:55:16;;;;;;;9.23;6.70;;;;;;;;;;5006865;28;20248;-84
2022/06/04 02:57:45;;;;;;;10.97;7.50;;;;;;;;;;5010144;28;20312;-84
2022/06/04 03:00:13;;;;;;;10.83;7.50;;;;;;;;;;5010242;28;20209;-84
2022/06/04 03:02:42;;;;;;;10.13;7.30;;;;;;;;;;5008682;28;20510;-84
2022/06/04 03:05:11;;;;;;;9.33;7.17;;;;;;;;;;5010109;28;20311;-84
2022/06/04 03:07:40;;;;;;;9.20;7.03;;;;;;;;;;5034612;23;20379;-81
2022/06/04 03:10:09;;;;;;;10.03;7.50;;;;;;;;;;5027333;28;20714;-82
2022/06/04 03:12:36;;;;;;;10.00;6.93;;;;;;;;;;5026879;28;20213;-82
2022/06/04 03:15:04;;;;;;;10.20;7.33;;;;;;;;;;5026441;28;20238;-81
2022/06/04 03:17:31;;;;;;;14.00;7.13;;;;;;;;;;5026917;28;20263;-82
2022/06/04 03:19:59;;;;;;;12.83;7.03;;;;;;;;;;5026155;28;20218;-81
2022/06/04 03:22:27;;;;;;;12.30;7.03;;;;;;;;;;5026839;28;20279;-82
2022/06/04 03:24:54;;;;;;;9.23;6.87;;;;;;;;;;5022742;28;20994;-83
2022/06/04 03:27:21;;;;;;;11.03;7.17;;;;;;;;;;5027091;28;20257;-82
2022/06/04 03:29:48;;;;;;;13.70;7.33;;;;;;;;;;5023613;28;20207;-82
2022/06/04 03:32:15;;;;;;;12.03;7.70;;;;;;;;;;5023969;28;21039;-82
2022/06/04 03:34:43;;;;;;;13.07;7.23;;;;;;;;;;5024547;28;20201;-80
2022/06/04 03:37:11;;;;;;;10.63;7.37;;;;;;;;;;5024163;28;20215;-83
2022/06/04 03:39:39;;;;;;;9.50;7.37;;;;;;;;;;5025239;28;20228;-81
2022/06/04 03:42:09;;;;;;;9.83;7.03;;;;;;;;;;5027565;28;20208;-85
2022/06/04 03:44:36;;;;;;;10.77;7.30;;;;;;;;;;5023219;28;20242;-83
2022/06/04 03:47:05;;;;;;;9.67;6.40;;;;;;;;;;5023261;28;20281;-83
2022/06/04 03:49:33;;;;;;;9.60;7.07;;;;;;;;;;5022048;28;20228;-82
2022/06/04 03:52:01;;;;;;;10.83;7.40;;;;;;;;;;5024452;28;20270;-84
2022/06/04 03:59:59;;;;;;;8.93;6.47;;;;;;;;;;5022918;28;20195;-82
2022/06/04 04:02:26;;;;;;;11.07;6.43;;;;;;;;;;5026420;28;20227;-81
2022/06/04 04:04:53;;;;;;;7.67;6.43;;;;;;;;;;5022267;28;20216;-84
2022/06/04 04:07:21;;;;;;;9.50;6.97;;;;;;;;;;5024843;28;20322;-82
2022/06/04 04:09:49;;;;;;;9.93;6.50;;;;;;;;;;5022873;28;20645;-82
2022/06/04 04:12:16;;;;;;;8.47;6.40;;;;;;;;;;5025013;28;20214;-82
2022/06/04 04:14:44;;;;;;;10.43;6.53;;;;;;;;;;5022718;28;20216;-84
2022/06/04 04:17:11;;;;;;;8.03;7.07;;;;;;;;;;5023846;28;20216;-84
2022/06/04 04:19:38;;;;;;;8.97;6.37;;;;;;;;;;5023971;28;20224;-83
2022/06/04 04:22:06;;;;;;;11.57;7.17;;;;;;;;;;5022798;28;20200;-81
2022/06/04 04:24:33;;;;;;;9.43;6.20;;;;;;;;;;5023400;28;20676;-81
2022/06/04 04:27:01;;;;;;;8.00;6.43;;;;;;;;;;5024462;28;20225;-82
2022/06/04 04:29:28;;;;;;;7.83;6.10;;;;;;;;;;5028978;28;20266;-82
2022/06/04 04:31:56;;;;;;;8.07;6.00;;;;;;;;;;5027760;28;20207;-84
2022/06/04 04:34:23;;;;;;;9.60;6.17;;;;;;;;;;5025985;28;20270;-83
2022/06/04 04:36:50;;;;;;;8.73;6.23;;;;;;;;;;5028322;28;20246;-81
2022/06/04 04:39:17;;;;;;;6.67;5.87;;;;;;;;;;5028968;28;20258;-83
2022/06/04 04:41:44;;;;;;;10.07;6.50;;;;;;;;;;5026808;28;20208;-84
2022/06/04 04:44:13;;;;;;;7.87;6.27;;;;;;;;;;5029691;28;20239;-84
2022/06/04 04:46:40;;;;;;;8.20;5.80;;;;;;;;;;5026803;28;20648;-84
2022/06/04 04:49:08;;;;;;;7.17;5.57;;;;;;;;;;5026932;28;20243;-84
2022/06/04 04:51:35;;;;;;;7.33;5.63;;;;;;;;;;5027658;28;20242;-85
2022/06/04 04:54:02;;;;;;;7.93;5.73;;;;;;;;;;5029344;28;20676;-84
2022/06/04 04:56:30;;;;;;;7.43;5.90;;;;;;;;;;5024953;28;20693;-81
2022/06/04 04:58:57;;;;;;;7.23;5.80;;;;;;;;;;5027088;28;20231;-84
2022/06/04 05:01:26;;;;;;;6.90;5.80;;;;;;;;;;5027343;28;20524;-83
2022/06/04 05:03:54;;;;;;;10.80;6.97;;;;;;;;;;5025743;28;20750;-84
2022/06/04 05:06:22;;;;;;;9.10;6.37;;;;;;;;;;5025308;28;20219;-82
2022/06/04 05:08:52;;;;;;;8.37;6.13;;;;;;;;;;5026744;28;20220;-83
2022/06/04 05:11:20;;;;;;;9.03;6.33;;;;;;;;;;5022515;28;20199;-83
2022/06/04 05:13:49;;;;;;;7.80;6.10;;;;;;;;;;5025190;28;20258;-81
2022/06/04 05:16:16;;;;;;;8.80;6.57;;;;;;;;;;5022681;28;20204;-82
2022/06/04 05:18:45;;;;;;;7.90;6.60;;;;;;;;;;5024743;28;20681;-82
2022/06/04 05:21:13;;;;;;;8.43;6.37;;;;;;;;;;5028720;28;20211;-82
2022/06/04 05:23:41;;;;;;;10.57;6.33;;;;;;;;;;5030002;28;20215;-80
2022/06/04 05:26:08;;;;;;;9.80;6.37;;;;;;;;;;5029368;28;20242;-81
2022/06/04 05:28:35;;;;;;;7.87;6.50;;;;;;;;;;5030934;28;20319;-79
2022/06/04 05:31:02;;;;;;;9.50;6.60;;;;;;;;;;5027986;28;20302;-82
2022/06/04 05:33:29;;;;;;;7.83;6.37;;;;;;;;;;5026469;28;20605;-80
2022/06/04 05:35:58;;;;;;;7.90;6.37;;;;;;;;;;5027718;28;20203;-79
2022/06/04 05:38:25;;;;;;;9.03;6.47;;;;;;;;;;5026991;28;20315;-81
2022/06/04 05:40:59;;;;;;;7.17;6.00;;;;;;;;;;5027030;28;20208;-79
2022/06/04 05:43:26;;;;;;;9.70;6.27;;;;;;;;;;5029858;28;20793;-82
2022/06/04 05:45:57;;;;;;;6.33;5.67;;;;;;;;;;5021834;28;20254;-79
2022/06/04 05:48:24;;;;;;;9.23;6.77;;;;;;;;;;5030366;28;20772;-80
2022/06/04 05:50:53;;;;;;;7.80;6.20;;;;;;;;;;5025137;28;20326;-79
2022/06/04 05:53:22;;;;;;;8.53;6.17;;;;;;;;;;5028642;28;20210;-79
2022/06/04 05:55:49;;;;;;;9.27;6.77;;;;;;;;;;5027778;28;20204;-79
2022/06/04 05:58:16;;;;;;;8.23;6.40;;;;;;;;;;5025750;28;20216;-79
2022/06/04 06:00:44;;;;;;;8.27;6.20;;;;;;;;;;5025799;28;20331;-79
2022/06/04 06:03:11;;;;;;;7.37;6.47;;;;;;;;;;5024478;28;20203;-78
2022/06/04 06:05:42;;;;;;;9.37;6.63;;;;;;;;;;5024915;28;20220;-78
2022/06/04 06:08:09;;;;;;;7.73;6.57;;;;;;;;;;5031248;28;20239;-80
2022/06/04 06:10:41;;;;;;;7.93;6.67;;;;;;;;;;5026270;28;20215;-80
2022/06/04 06:13:08;;;;;;;7.57;6.10;;;;;;;;;;5029796;28;20216;-81
2022/06/04 06:15:35;;;;;;;10.03;6.20;;;;;;;;;;5027036;28;20214;-81
2022/06/04 06:18:03;;;;;;;8.10;5.93;;;;;;;;;;5028759;28;20219;-81
2022/06/04 06:20:30;;;;;;;9.67;5.80;;;;;;;;;;5025427;28;20214;-81
2022/06/04 06:22:57;;;;;;;6.43;5.37;;;;;;;;;;5029779;28;20204;-80
2022/06/04 06:25:24;;;;;;;7.10;4.70;;;;;;;;;;5028008;28;20224;-81
2022/06/04 06:27:53;;;;;;;6.27;4.90;;;;;;;;;;5028151;28;20259;-81
2022/06/04 06:30:21;;;;;;;6.97;4.13;;;;;;;;;;5028593;28;20608;-82
2022/06/04 06:32:48;;;;;;;7.50;4.50;;;;;;;;;;5032120;28;20207;-81
2022/06/04 06:35:16;;;;;;;6.43;4.40;;;;;;;;;;5027654;28;20212;-81
2022/06/04 06:37:43;;;;;;;5.07;3.70;;;;;;;;;;5029289;28;20307;-81
2022/06/04 06:40:11;;;;;;;8.57;4.40;;;;;;;;;;5032400;28;20207;-81
2022/06/04 06:42:38;;;;;;;6.43;3.80;;;;;;;;;;5027486;28;20238;-81
2022/06/04 06:45:08;;;;;;;7.43;4.13;;;;;;;;;;5027716;28;20223;-81
2022/06/04 06:47:35;;;;;;;7.47;4.07;;;;;;;;;;5030768;28;20288;-80
2022/06/04 06:50:02;;;;;;;5.53;4.10;;;;;;;;;;5029366;28;20206;-79
2022/06/04 06:52:29;;;;;;;6.03;4.23;;;;;;;;;;5029495;28;20232;-80
2022/06/04 06:54:57;;;;;;;5.40;3.83;;;;;;;;;;5028198;28;20207;-80
2022/06/04 06:57:24;;;;;;;5.27;4.03;;;;;;;;;;5026952;28;20243;-81
2022/06/04 06:59:51;;;;;;;8.97;3.80;;;;;;;;;;5026694;28;20531;-81
2022/06/04 07:02:20;;;;;;;5.20;3.50;;;;;;;;;;5025779;28;20199;-81
2022/06/04 07:04:47;;;;;;;5.40;3.33;;;;;;;;;;5026997;28;20199;-81
2022/06/04 07:07:14;;;;;;;4.00;3.57;;;;;;;;;;5025587;28;20243;-79
2022/06/04 07:09:44;;;;;;;5.73;3.97;;;;;;;;;;5022644;28;20774;-79
2022/06/04 07:12:12;;;;;;;5.80;3.10;;;;;;;;;;5028067;28;20478;-81
2022/06/04 07:14:40;;;;;;;4.37;3.20;;;;;;;;;;5025533;28;20242;-81
2022/06/04 07:17:08;;;;;;;4.53;3.47;;;;;;;;;;5026034;28;20299;-82
2022/06/04 07:19:36;;;;;;;5.03;3.17;;;;;;;;;;5027837;28;20718;-82
2022/06/04 07:22:04;;;;;;;5.07;3.60;;;;;;;;;;5026207;28;20291;-81
2022/06/04 07:24:31;;;;;;;3.83;3.40;;;;;;;;;;5026940;28;20278;-81
2022/06/04 07:26:59;;;;;;;6.93;3.60;;;;;;;;;;5027444;28;20242;-80
2022/06/04 07:29:28;;;;;;;6.73;3.60;;;;;;;;;;5029298;28;20302;-81
2022/06/04 07:31:56;;;;;;;4.47;3.53;;;;;;;;;;5030327;28;20222;-81
2022/06/04 07:34:23;;;;;;;5.70;3.93;;;;;;;;;;5027548;28;20553;-81
2022/06/04 07:36:52;;;;;;;6.17;3.73;;;;;;;;;;5024892;28;20206;-81
2022/06/04 07:39:19;;;;;;;7.33;3.77;;;;;;;;;;5027440;28;20615;-81
2022/06/04 07:41:51;;;;;;;7.20;3.53;;;;;;;;;;5022008;28;20218;-79
2022/06/04 07:44:19;;;;;;;6.17;3.30;;;;;;;;;;5021557;28;20204;-80
2022/06/04 07:46:47;;;;;;;4.30;3.50;;;;;;;;;;5023793;28;20209;-81
2022/06/04 07:49:14;;;;;;;5.77;3.30;;;;;;;;;;5023169;28;20276;-82
2022/06/04 07:51:43;;;;;;;6.37;3.60;;;;;;;;;;5025205;28;20231;-80
2022/06/04 07:54:11;;;;;;;6.07;3.17;;;;;;;;;;5023864;28;20225;-81
2022/06/04 07:56:39;;;;;;;3.87;2.90;;;;;;;;;;5025945;28;20211;-83
2022/06/04 07:59:07;;;;;;;3.47;2.97;;;;;;;;;;5024826;28;20222;-82
2022/06/04 08:01:34;;;;;;;4.90;3.10;;;;;;;;;;5026921;28;20208;-80
2022/06/04 08:04:01;;;;;;;3.57;2.90;;;;;;;;;;5028765;28;20250;-81
2022/06/04 08:06:31;;;;;;;4.40;3.57;;;;;;;;;;5029218;28;20221;-81
2022/06/04 08:08:59;;;;;;;6.17;3.30;;;;;;;;;;5029438;28;20235;-81
2022/06/04 08:11:35;;;;;;;5.37;3.03;;;;;;;;;;5031080;28;20274;-82
2022/06/04 08:14:07;;;;;;;4.73;3.13;;;;;;;;;;5032827;28;20199;-82
2022/06/04 08:16:35;;;;;;;5.83;3.50;;;;;;;;;;5027269;28;20673;-81
2022/06/04 08:19:02;;;;;;;6.57;2.90;;;;;;;;;;5029695;28;20304;-82
2022/06/04 08:21:29;;;;;;;3.77;3.07;;;;;;;;;;5028376;28;20284;-82
2022/06/04 08:23:56;;;;;;;5.10;3.17;;;;;;;;;;5034173;28;20243;-81
2022/06/04 08:26:23;;;;;;;3.23;2.73;;;;;;;;;;5029024;28;20656;-82
2022/06/04 08:28:52;;;;;;;4.27;2.70;;;;;;;;;;5035350;28;20284;-81
2022/06/04 08:31:19;;;;;;;3.90;3.00;;;;;;;;;;5035323;28;20211;-81
2022/06/04 08:33:47;;;;;;;3.77;2.77;;;;;;;;;;5037629;28;20334;-83
2022/06/04 08:36:15;;;;;;;3.57;2.80;;;;;;;;;;5036960;28;20244;-81
2022/06/04 08:38:43;;;;;;;3.40;3.00;;;;;;;;;;5025578;28;20216;-79
2022/06/04 08:41:20;;;;;;;4.33;2.90;;;;;;;;;;5030400;28;20672;-80
2022/06/04 08:43:49;;;;;;;3.67;2.90;;;;;;;;;;5027958;28;20250;-82
2022/06/04 08:46:20;;;;;;;6.60;3.20;;;;;;;;;;5029649;28;20195;-82
2022/06/04 08:48:48;;;;;;;6.07;3.10;;;;;;;;;;5028277;28;20977;-81
2022/06/04 08:51:21;;;;;;;10.10;3.00;;;;;;;;;;5032781;28;20210;-81
2022/06/04 08:53:50;;;;;;;6.13;2.90;;;;;;;;;;5030996;28;20231;-80
2022/06/04 08:59:10;;;;;;;6.63;3.20;;;;;;;;;;5032037;28;20309;-82
2022/06/04 09:01:40;;;;;;;6.60;3.33;;;;;;;;;;5033953;28;20203;-80
2022/06/04 09:04:14;;;;;;;6.97;3.30;;;;;;;;;;5032659;28;20241;-79
2022/06/04 09:06:46;;;;;;;4.47;3.43;;;;;;;;;;5027976;28;20232;-81
2022/06/04 09:09:14;;;;;;;3.93;3.20;;;;;;;;;;5071718;23;20706;-84
2022/06/04 09:11:45;;;;;;;17.90;3.40;;;;;;;;;;5034036;28;20263;-84
2022/06/04 09:14:26;;;;;;;3.80;3.20;;;;;;;;;;5034899;28;20204;-82
2022/06/04 09:16:57;;;;;;;5.23;3.13;;;;;;;;;;5029885;28;20213;-85
2022/06/04 09:19:26;;;;;;;4.10;3.17;;;;;;;;;;5030350;28;20346;-82
2022/06/04 09:21:54;;;;;;;5.03;3.30;;;;;;;;;;5028200;28;20196;-83
2022/06/04 09:24:21;;;;;;;5.40;3.23;;;;;;;;;;5027184;28;20287;-81
2022/06/04 09:26:51;;;;;;;3.40;2.80;;;;;;;;;;5024948;28;20283;-81
2022/06/04 09:29:26;;;;;;;29.57;4.77;;;;;;;;;;5025243;28;20420;-83
2022/06/04 09:31:59;;;;;;;5.53;3.30;;;;;;;;;;5021710;28;20210;-81
2022/06/04 09:34:36;;;;;;;4.30;3.37;;;;;;;;;;5021294;28;20218;-81
2022/06/04 09:37:05;;;;;;;4.97;3.47;;;;;;;;;;5024203;28;20212;-82
2022/06/04 09:39:33;;;;;;;4.73;3.30;;;;;;;;;;5024073;28;20314;-81
2022/06/04 09:42:01;;;;;;;6.57;3.50;;;;;;;;;;5024014;28;20208;-83
2022/06/04 09:44:29;;;;;;;7.70;3.90;;;;;;;;;;5025390;28;20204;-84
2022/06/04 09:47:01;;;;;;;3.53;3.10;;;;;;;;;;5025498;28;20620;-84
2022/06/04 09:49:34;;;;;;;8.47;3.43;;;;;;;;;;5021926;28;20692;-80
2022/06/04 09:52:01;;;;;;;7.13;3.40;;;;;;;;;;5023620;28;20601;-83
2022/06/04 09:54:30;;;;;;;3.47;3.10;;;;;;;;;;5026081;28;20217;-81
2022/06/04 09:57:02;;;;;;;3.70;3.17;;;;;;;;;;5026369;28;20589;-84
2022/06/04 09:59:32;;;;;;;4.47;3.70;;;;;;;;;;5024301;28;20302;-83
2022/06/04 10:02:02;;;;;;;4.67;3.23;;;;;;;;;;5026132;28;20227;-83
2022/06/04 10:04:40;;;;;;;5.00;3.33;;;;;;;;;;5025384;28;20324;-82
2022/06/04 10:07:08;;;;;;;3.70;3.30;;;;;;;;;;5023088;28;20286;-83
2022/06/04 10:13:42;;;;;;;4.43;3.63;;;;;;;;;;5023864;28;20261;-83
2022/06/04 10:15:15;;;;;;;5.03;3.30;;;;;;;;;;5026213;28;20204;-84
2022/06/04 10:17:44;;;;;;;5.37;3.40;;;;;;;;;;5024788;28;20204;-80
2022/06/04 10:20:20;;;;;;;5.00;3.20;;;;;;;;;;5025334;28;20306;-84
2022/06/04 10:22:50;;;;;;;5.60;3.30;;;;;;;;;;5026935;28;20276;-84
2022/06/04 10:25:22;;;;;;;4.50;3.20;;;;;;;;;;5022515;28;20238;-83
2022/06/04 10:27:53;;;;;;;4.40;3.40;;;;;;;;;;5023917;28;20200;-80
2022/06/04 10:30:24;;;;;;;6.37;3.43;;;;;;;;;;5024520;28;20225;-84
2022/06/04 10:33:02;;;;;;;4.30;3.03;;;;;;;;;;5026092;28;20254;-83
2022/06/04 10:35:47;;;;;;;6.67;3.30;;;;;;;;;;5022689;28;20230;-84
2022/06/04 10:38:22;;;;;;;7.17;3.07;;;;;;;;;;5029202;28;20237;-85
2022/06/04 10:40:53;;;;;;;5.40;3.03;;;;;;;;;;5026494;28;20201;-82
2022/06/04 10:43:27;;;;;;;5.47;3.10;;;;;;;;;;5024434;28;20249;-84
2022/06/04 10:46:05;;;;;;;3.93;2.73;;;;;;;;;;5094599;27;20621;-77
2022/06/04 10:48:42;;;;;;;4.93;3.20;;;;;;;;;;5095542;28;20264;-77
2022/06/04 10:51:28;;;;;;;4.00;2.70;;;;;;;;;;5097826;28;20268;-76
2022/06/04 10:54:04;;;;;;;3.47;3.07;;;;;;;;;;5097783;28;20237;-77
2022/06/04 10:56:34;;;;;;;4.30;3.10;;;;;;;;;;5093331;28;20209;-77
2022/06/04 10:59:03;;;;;;;3.57;3.03;;;;;;;;;;5089254;28;20234;-77
2022/06/04 11:01:36;;;;;;;5.37;3.10;;;;;;;;;;5094348;28;20670;-76
2022/06/04 11:04:09;;;;;;;4.67;2.80;;;;;;;;;;5095722;28;20749;-77
2022/06/04 11:06:39;;;;;;;6.83;3.10;;;;;;;;;;5093749;28;20682;-76
2022/06/04 11:09:11;;;;;;;7.17;3.10;;;;;;;;;;5107285;28;20733;-76
2022/06/04 11:11:40;;;;;;;6.27;3.50;;;;;;;;;;5099788;28;20694;-75
2022/06/04 11:14:11;;;;;;;5.83;3.13;;;;;;;;;;5094070;28;20222;-76
2022/06/04 11:16:42;;;;;;;4.43;3.47;;;;;;;;;;5099072;28;20213;-76
2022/06/04 11:19:13;;;;;;;4.07;3.10;;;;;;;;;;5098961;28;20216;-76
2022/06/04 11:21:42;;;;;;;3.30;3.00;;;;;;;;;;5099360;28;20291;-76
2022/06/04 11:24:12;;;;;;;3.33;3.00;;;;;;;;;;5097398;28;20226;-77
2022/06/04 11:26:42;;;;;;;4.10;3.00;;;;;;;;;;5095938;28;20288;-77
2022/06/04 11:29:11;;;;;;;4.77;3.33;;;;;;;;;;5096487;28;20673;-77
2022/06/04 11:31:52;;;;;;;3.73;3.17;;;;;;;;;;5093729;28;20300;-76
2022/06/04 11:34:29;;;;;;;5.67;3.23;;;;;;;;;;5095534;28;20281;-78
2022/06/04 11:37:02;;;;;;;5.00;3.60;;;;;;;;;;5090050;28;20205;-77
2022/06/04 11:39:38;;;;;;;4.60;3.43;;;;;;;;;;5093349;28;20296;-76
2022/06/04 11:42:10;;;;;;;5.43;2.97;;;;;;;;;;5095542;28;20219;-76
2022/06/04 11:45:01;;;;;;;4.80;3.33;;;;;;;;;;5090408;28;20261;-77
2022/06/04 11:47:39;;;;;;;4.80;3.10;;;;;;;;;;5093780;28;20204;-76
2022/06/04 11:50:10;;;;;;;4.50;3.43;;;;;;;;;;5093224;28;20694;-77
2022/06/04 11:52:42;;;;;;;4.33;2.83;;;;;;;;;;5096779;28;20637;-77
2022/06/04 11:55:18;;;;;;;3.80;3.17;;;;;;;;;;5099111;28;20258;-76
2022/06/04 11:57:52;;;;;;;3.37;3.07;;;;;;;;;;5081376;28;20384;-76
2022/06/04 12:00:21;;;;;;;3.77;2.77;;;;;;;;;;5082127;28;20299;-76
2022/06/04 12:02:55;;;;;;;5.53;3.10;;;;;;;;;;5078907;28;20292;-76
2022/06/04 12:05:30;;;;;;;6.07;3.20;;;;;;;;;;5082346;28;20829;-76
2022/06/04 12:08:04;;;;;;;3.73;3.37;;;;;;;;;;5079502;28;20273;-76
2022/06/04 12:10:37;;;;;;;4.80;3.13;;;;;;;;;;5083580;28;20201;-76
2022/06/04 12:13:06;;;;;;;5.17;3.30;;;;;;;;;;5079575;28;20644;-76
2022/06/04 12:15:38;;;;;;;6.67;3.40;;;;;;;;;;5083932;28;20220;-77
2022/06/04 12:18:20;;;;;;;4.67;3.57;;;;;;;;;;5085187;28;20208;-76
2022/06/04 12:26:40;;;;;;;4.13;3.20;;;;;;;;;;5020185;28;20200;-76
2022/06/04 12:29:24;;;;;;;3.23;2.93;;;;;;;;;;5016310;28;20290;-76
2022/06/04 12:31:56;;;;;;;5.77;3.57;;;;;;;;;;5053134;28;20267;-77
2022/06/04 12:34:27;;;;;;;10.10;3.30;;;;;;;;;;5081873;28;20236;-76
2022/06/04 12:36:56;;;;;;;5.23;3.60;;;;;;;;;;5083233;28;20273;-75
2022/06/04 12:39:24;;;;;;;3.40;3.10;;;;;;;;;;5090252;28;20208;-77
2022/06/04 12:41:52;;;;;;;3.93;3.40;;;;;;;;;;5086528;28;20354;-77
2022/06/04 12:44:24;;;;;;;4.13;3.20;;;;;;;;;;5082785;28;20229;-76
2022/06/04 12:46:52;;;;;;;5.87;3.47;;;;;;;;;;5077594;28;20292;-77
2022/06/04 12:49:28;;;;;;;4.07;3.50;;;;;;;;;;5088555;28;20197;-77
2022/06/04 12:51:58;;;;;;;4.97;3.30;;;;;;;;;;5087697;28;20300;-77
2022/06/04 12:54:40;;;;;;;3.87;3.47;;;;;;;;;;5075860;28;20475;-75
2022/06/04 12:57:17;;;;;;;4.67;3.37;;;;;;;;;;5074574;28;20475;-75
2022/06/04 12:59:46;;;;;;;6.90;3.53;;;;;;;;;;5072634;28;20607;-76
2022/06/04 13:02:31;;;;;;;4.93;3.60;;;;;;;;;;5075750;28;20746;-76
2022/06/04 13:05:14;;;;;;;3.47;3.17;;;;;;;;;;5079208;28;20266;-76
2022/06/04 13:07:46;;;;;;;6.50;3.30;;;;;;;;;;5076044;28;20300;-76
2022/06/04 13:10:17;;;;;;;4.60;3.23;;;;;;;;;;5072759;28;20202;-76
2022/06/04 13:12:48;;;;;;;5.90;3.67;;;;;;;;;;5073720;28;20298;-77
2022/06/04 13:15:18;;;;;;;3.63;3.20;;;;;;;;;;5067719;28;20766;-76
2022/06/04 13:17:47;;;;;;;6.70;3.50;;;;;;;;;;5073751;28;20205;-76
2022/06/04 13:20:26;;;;;;;4.93;2.80;;;;;;;;;;5077776;28;20226;-76
2022/06/04 13:22:55;;;;;;;6.07;3.30;;;;;;;;;;5075266;28;20222;-76
2022/06/04 13:25:24;;;;;;;5.53;3.17;;;;;;;;;;5071674;28;20255;-76
2022/06/04 13:27:52;;;;;;;3.53;2.90;;;;;;;;;;5073863;28;20240;-75
2022/06/04 13:30:22;;;;;;;3.63;2.90;;;;;;;;;;5074613;28;20205;-77
2022/06/04 13:32:49;;;;;;;5.77;3.07;;;;;;;;;;5075623;28;20551;-76
2022/06/04 13:35:18;;;;;;;7.47;3.23;;;;;;;;;;5086361;28;20320;-75
2022/06/04 13:37:47;;;;;;;3.53;2.80;;;;;;;;;;5079589;28;21196;-76
2022/06/04 13:40:19;;;;;;;5.07;3.10;;;;;;;;;;5077913;28;20225;-75
2022/06/04 13:42:48;;;;;;;7.37;3.13;;;;;;;;;;5076471;28;20301;-75
2022/06/04 13:45:33;;;;;;;4.50;3.30;;;;;;;;;;5078515;28;20283;-75
2022/06/04 13:48:01;;;;;;;5.57;2.93;;;;;;;;;;5077628;28;20251;-72
2022/06/04 13:50:30;;;;;;;6.07;3.40;;;;;;;;;;5074704;28;20248;-76
2022/06/04 13:53:00;;;;;;;4.73;3.03;;;;;;;;;;5080282;28;20202;-76
2022/06/04 13:55:29;;;;;;;4.57;3.10;;;;;;;;;;5075375;28;20253;-76
2022/06/04 13:57:59;;;;;;;3.77;3.13;;;;;;;;;;5082364;28;20210;-77
2022/06/04 14:00:27;;;;;;;3.37;3.07;;;;;;;;;;5076675;28;20225;-76
2022/06/04 14:02:56;;;;;;;4.00;3.13;;;;;;;;;;5085475;28;20645;-77
2022/06/04 14:05:44;;;;;;;6.10;3.43;;;;;;;;;;5081470;28;20302;-77
2022/06/04 14:08:13;;;;;;;3.73;3.00;;;;;;;;;;5084822;28;20332;-78
2022/06/04 14:10:42;;;;;;;3.70;3.07;;;;;;;;;;5085337;28;20197;-77
2022/06/04 14:13:14;;;;;;;5.33;3.50;;;;;;;;;;5083301;28;20206;-76
2022/06/04 14:15:51;;;;;;;3.40;3.10;;;;;;;;;;5080169;28;20314;-78
2022/06/04 14:18:29;;;;;;;5.87;3.00;;;;;;;;;;5081050;28;20759;-77
2022/06/04 14:21:11;;;;;;;3.27;2.90;;;;;;;;;;5078741;28;20325;-77
2022/06/04 14:23:47;;;;;;;8.53;3.27;;;;;;;;;;5079118;28;20284;-77
2022/06/04 14:26:25;;;;;;;5.37;2.80;;;;;;;;;;5080474;28;20314;-77
2022/06/04 14:28:54;;;;;;;4.47;3.33;;;;;;;;;;5085149;28;20206;-76
2022/06/04 14:31:29;;;;;;;4.20;3.40;;;;;;;;;;5079720;28;20201;-75
2022/06/04 14:33:58;;;;;;;3.80;2.83;;;;;;;;;;5083991;28;20206;-75
2022/06/04 14:36:26;;;;;;;4.60;3.70;;;;;;;;;;5080203;28;20208;-76
2022/06/04 14:38:55;;;;;;;3.20;2.90;;;;;;;;;;5083072;28;20206;-76
2022/06/04 14:41:27;;;;;;;3.63;2.90;;;;;;;;;;5077261;28;20246;-75
2022/06/04 14:44:15;;;;;;;5.13;2.60;;;;;;;;;;5071769;28;20691;-76
2022/06/04 14:47:06;;;;;;;5.03;3.13;;;;;;;;;;5081122;28;20304;-76
2022/06/04 14:49:47;;;;;;;3.57;2.80;;;;;;;;;;5063758;28;20263;-76
2022/06/04 14:52:32;;;;;;;2.90;2.70;;;;;;;;;;5077168;28;20202;-75
2022/06/04 14:55:06;;;;;;;2.87;2.50;;;;;;;;;;5076356;28;20313;-76
2022/06/04 14:57:43;;;;;;;3.80;2.80;;;;;;;;;;5077971;28;20204;-75
2022/06/04 15:00:20;;;;;;;6.30;2.70;;;;;;;;;;5084640;28;20240;-76
2022/06/04 15:02:55;;;;;;;2.97;2.67;;;;;;;;;;5079807;28;20202;-75
2022/06/04 15:05:26;;;;;;;5.17;2.80;;;;;;;;;;5080120;28;20252;-75
2022/06/04 15:08:11;;;;;;;2.93;2.40;;;;;;;;;;5075814;28;20206;-75
2022/06/04 15:10:46;;;;;;;3.07;2.70;;;;;;;;;;5072372;28;20417;-76
2022/06/04 15:13:17;;;;;;;3.67;2.70;;;;;;;;;;5079671;28;20201;-78
2022/06/04 15:15:52;;;;;;;5.80;2.60;;;;;;;;;;5080355;28;20511;-76
2022/06/04 15:18:29;;;;;;;4.67;2.73;;;;;;;;;;5081408;28;20873;-76
2022/06/04 15:21:00;;;;;;;3.67;2.50;;;;;;;;;;5077920;28;20281;-75
2022/06/04 15:23:33;;;;;;;3.73;2.40;;;;;;;;;;5076709;28;21968;-76
2022/06/04 15:26:03;;;;;;;3.03;2.30;;;;;;;;;;5080828;28;20268;-75
2022/06/04 15:37:04;;;;;;;3.80;2.70;;;;;;;;;;5072239;28;20254;-77
2022/06/04 15:39:33;;;;;;;4.10;2.90;;;;;;;;;;5076212;28;20237;-77